createdAt,value
2018-12-13T00:00:21.733Z,936.24
2018-12-13T00:01:22.145Z,936.2
2018-12-13T00:02:22.558Z,936.15
2018-12-13T00:03:23.075Z,936.16
2018-12-13T00:04:24.039Z,936.16
2018-12-13T00:05:25.007Z,936.14
2018-12-13T00:06:25.410Z,936.12
2018-12-13T00:06:37.435Z,936.1
2018-12-13T00:07:38.258Z,936.04
2018-12-13T00:08:39.391Z,936.08
2018-12-13T00:09:40.637Z,936.07
2018-12-13T00:10:41.161Z,936.04
2018-12-13T00:11:41.844Z,936.03
2018-12-13T00:12:42.531Z,936.05
2018-12-13T00:13:43.664Z,936.01
2018-12-13T00:14:43.910Z,936.02
2018-12-13T00:15:45.042Z,935.97
2018-12-13T00:16:45.452Z,935.92
2018-12-13T00:17:46.263Z,935.94
2018-12-13T00:18:46.954Z,935.95
2018-12-13T00:19:48.201Z,935.93
2018-12-13T00:20:49.333Z,935.9
2018-12-13T00:21:50.465Z,935.87
2018-12-13T00:22:51.157Z,935.86
2018-12-13T00:23:51.565Z,935.87
2018-12-13T00:24:52.528Z,935.86
2018-12-13T00:25:53.937Z,935.82
2018-12-13T00:26:54.648Z,935.83
2018-12-13T00:27:55.488Z,935.82
2018-12-13T00:28:56.177Z,935.76
2018-12-13T00:29:57.314Z,935.79
2018-12-13T00:30:58.445Z,935.75
2018-12-13T00:31:58.687Z,935.78
2018-12-13T00:32:59.094Z,935.75
2018-12-13T00:34:00.231Z,935.78
2018-12-13T00:35:01.361Z,935.74
2018-12-13T00:36:02.074Z,935.75
2018-12-13T00:37:02.815Z,935.75
2018-12-13T00:38:03.905Z,935.73
2018-12-13T00:39:04.871Z,935.77
2018-12-13T00:40:05.557Z,935.71
2018-12-13T00:41:06.801Z,935.68
2018-12-13T00:42:07.484Z,935.68
2018-12-13T00:43:08.172Z,935.7
2018-12-13T00:44:08.578Z,935.66
2018-12-13T00:45:09.987Z,935.67
2018-12-13T00:46:10.450Z,935.64
2018-12-13T00:47:11.135Z,935.64
2018-12-13T00:48:11.938Z,935.69
2018-12-13T00:49:12.904Z,935.61
2018-12-13T00:50:13.593Z,935.63
2018-12-13T00:51:14.005Z,935.64
2018-12-13T00:52:14.715Z,935.63
2018-12-13T00:53:15.399Z,935.67
2018-12-13T00:54:16.088Z,935.66
2018-12-13T00:55:17.053Z,935.67
2018-12-13T00:56:18.185Z,935.64
2018-12-13T00:57:18.595Z,935.59
2018-12-13T00:58:19.426Z,935.59
2018-12-13T00:59:19.676Z,935.58
2018-12-13T01:00:20.363Z,935.56
2018-12-13T01:01:21.337Z,935.61
2018-12-13T01:02:22.465Z,935.56
2018-12-13T01:03:23.152Z,935.58
2018-12-13T01:04:24.559Z,935.65
2018-12-13T01:05:25.246Z,935.67
2018-12-13T01:06:25.932Z,935.62
2018-12-13T01:07:26.624Z,935.66
2018-12-13T01:08:27.719Z,935.64
2018-12-13T01:09:28.401Z,935.63
2018-12-13T01:10:29.364Z,935.62
2018-12-13T01:11:30.604Z,935.64
2018-12-13T01:12:31.292Z,935.63
2018-12-13T01:13:31.978Z,935.64
2018-12-13T01:14:32.934Z,935.63
2018-12-13T01:15:33.612Z,935.62
2018-12-13T01:16:34.735Z,935.61
2018-12-13T01:17:35.904Z,935.65
2018-12-13T01:18:36.444Z,935.63
2018-12-13T01:19:37.118Z,935.71
2018-12-13T01:20:38.242Z,935.67
2018-12-13T01:21:39.360Z,935.61
2018-12-13T01:22:40.064Z,935.63
2018-12-13T01:23:40.729Z,935.65
2018-12-13T01:24:41.407Z,935.63
2018-12-13T01:25:42.581Z,935.61
2018-12-13T01:26:42.989Z,935.58
2018-12-13T01:27:43.555Z,935.61
2018-12-13T01:28:44.074Z,935.58
2018-12-13T01:29:44.471Z,935.61
2018-12-13T01:30:45.175Z,935.6
2018-12-13T01:31:46.209Z,935.58
2018-12-13T01:32:46.879Z,935.59
2018-12-13T01:33:47.284Z,935.56
2018-12-13T01:34:47.958Z,935.56
2018-12-13T01:35:48.635Z,935.53
2018-12-13T01:36:53.086Z,935.51
2018-12-13T01:37:53.484Z,935.5
2018-12-13T01:38:54.347Z,935.49
2018-12-13T01:39:55.464Z,935.44
2018-12-13T01:40:56.163Z,935.45
2018-12-13T01:41:56.562Z,935.46
2018-12-13T01:42:57.238Z,935.45
2018-12-13T01:43:57.981Z,935.43
2018-12-13T01:44:59.097Z,935.38
2018-12-13T01:46:00.053Z,935.4
2018-12-13T01:47:00.450Z,935.37
2018-12-13T01:48:01.124Z,935.36
2018-12-13T01:49:01.922Z,935.38
2018-12-13T01:50:02.606Z,935.35
2018-12-13T01:51:03.277Z,935.36
2018-12-13T01:52:04.231Z,935.34
2018-12-13T01:53:04.629Z,935.29
2018-12-13T01:54:05.362Z,935.28
2018-12-13T01:55:05.758Z,935.26
2018-12-13T01:56:06.158Z,935.24
2018-12-13T01:57:07.110Z,935.26
2018-12-13T01:58:07.789Z,935.29
2018-12-13T01:59:08.940Z,935.29
2018-12-13T02:00:10.107Z,935.23
2018-12-13T02:01:10.511Z,935.24
2018-12-13T02:02:11.195Z,935.19
2018-12-13T02:03:12.160Z,935.17
2018-12-13T02:04:13.166Z,935.19
2018-12-13T02:05:13.845Z,935.18
2018-12-13T02:06:14.309Z,935.19
2018-12-13T02:07:15.272Z,935.14
2018-12-13T02:08:15.692Z,935.08
2018-12-13T02:09:16.627Z,935.11
2018-12-13T02:10:17.028Z,935.12
2018-12-13T02:11:18.156Z,935.14
2018-12-13T02:12:18.565Z,935.11
2018-12-13T02:13:19.021Z,935.09
2018-12-13T02:14:20.427Z,935.05
2018-12-13T02:15:21.122Z,935.07
2018-12-13T02:16:21.801Z,935.04
2018-12-13T02:17:22.217Z,935.07
2018-12-13T02:18:22.622Z,935.05
2018-12-13T02:19:23.737Z,935.07
2018-12-13T02:20:24.418Z,935.09
2018-12-13T02:21:25.543Z,935.07
2018-12-13T02:22:26.279Z,935.06
2018-12-13T02:23:27.237Z,935.07
2018-12-13T02:24:27.642Z,935.06
2018-12-13T02:25:28.044Z,935.08
2018-12-13T02:26:28.727Z,935.11
2018-12-13T02:27:29.133Z,935.1
2018-12-13T02:28:30.090Z,935.04
2018-12-13T02:29:31.193Z,935.01
2018-12-13T02:30:31.594Z,935.02
2018-12-13T02:31:31.836Z,935
2018-12-13T02:32:32.804Z,935.03
2018-12-13T02:33:33.771Z,934.95
2018-12-13T02:34:34.586Z,934.98
2018-12-13T02:35:35.557Z,934.93
2018-12-13T02:36:35.958Z,934.97
2018-12-13T02:37:36.472Z,934.9
2018-12-13T02:38:37.711Z,934.9
2018-12-13T02:39:38.534Z,934.91
2018-12-13T02:40:38.779Z,934.84
2018-12-13T02:41:39.465Z,934.85
2018-12-13T02:42:40.740Z,934.85
2018-12-13T02:43:41.699Z,934.88
2018-12-13T02:44:42.940Z,934.82
2018-12-13T02:45:43.625Z,934.8
2018-12-13T02:46:44.029Z,934.84
2018-12-13T02:47:44.711Z,934.84
2018-12-13T02:48:45.669Z,934.85
2018-12-13T02:49:46.219Z,934.8
2018-12-13T02:50:46.910Z,934.79
2018-12-13T02:51:47.868Z,934.77
2018-12-13T02:52:48.549Z,934.69
2018-12-13T02:53:49.239Z,934.7
2018-12-13T02:54:50.207Z,934.74
2018-12-13T02:55:51.179Z,934.79
2018-12-13T02:56:51.432Z,934.74
2018-12-13T02:57:52.115Z,934.74
2018-12-13T02:58:52.809Z,934.72
2018-12-13T02:59:53.202Z,934.73
2018-12-13T03:00:53.609Z,934.68
2018-12-13T03:01:54.300Z,934.74
2018-12-13T03:02:54.540Z,934.65
2018-12-13T03:03:55.504Z,934.66
2018-12-13T03:04:56.187Z,934.65
2018-12-13T03:05:56.424Z,934.66
2018-12-13T03:06:56.833Z,934.67
2018-12-13T03:07:57.236Z,934.64
2018-12-13T03:08:58.480Z,934.64
2018-12-13T03:09:59.583Z,934.61
2018-12-13T03:11:00.829Z,934.64
2018-12-13T03:12:01.792Z,934.61
2018-12-13T03:13:02.761Z,934.6
2018-12-13T03:14:02.990Z,934.61
2018-12-13T03:15:03.949Z,934.63
2018-12-13T03:16:04.192Z,934.58
2018-12-13T03:17:04.892Z,934.5
2018-12-13T03:18:05.582Z,934.52
2018-12-13T03:19:06.824Z,934.49
2018-12-13T03:20:07.950Z,934.48
2018-12-13T03:21:09.194Z,934.47
2018-12-13T03:22:09.876Z,934.47
2018-12-13T03:23:10.282Z,934.45
2018-12-13T03:24:10.801Z,934.46
2018-12-13T03:25:11.505Z,934.47
2018-12-13T03:26:12.744Z,934.49
2018-12-13T03:27:13.708Z,934.44
2018-12-13T03:28:14.122Z,934.42
2018-12-13T03:29:14.535Z,934.42
2018-12-13T03:30:15.787Z,934.42
2018-12-13T03:31:16.111Z,934.42
2018-12-13T03:32:16.670Z,934.39
2018-12-13T03:33:18.056Z,934.4
2018-12-13T03:34:19.020Z,934.36
2018-12-13T03:35:19.989Z,934.34
2018-12-13T03:36:20.956Z,934.36
2018-12-13T03:37:21.916Z,934.39
2018-12-13T03:38:22.439Z,934.32
2018-12-13T03:39:23.397Z,934.3
2018-12-13T03:40:24.508Z,934.31
2018-12-13T03:41:25.191Z,934.28
2018-12-13T03:42:26.162Z,934.26
2018-12-13T03:43:26.953Z,934.33
2018-12-13T03:44:27.356Z,934.27
2018-12-13T03:45:28.323Z,934.24
2018-12-13T03:46:29.051Z,934.26
2018-12-13T03:47:29.286Z,934.25
2018-12-13T03:48:29.972Z,934.31
2018-12-13T03:49:31.008Z,934.32
2018-12-13T03:50:32.095Z,934.31
2018-12-13T03:51:32.783Z,934.28
2018-12-13T03:52:33.024Z,934.31
2018-12-13T03:53:33.545Z,934.32
2018-12-13T03:54:34.056Z,934.27
2018-12-13T03:55:34.870Z,934.2
2018-12-13T03:56:35.384Z,934.21
2018-12-13T03:57:36.627Z,934.21
2018-12-13T03:58:37.586Z,934.18
2018-12-13T03:59:38.546Z,934.22
2018-12-13T04:00:39.659Z,934.2
2018-12-13T04:01:39.913Z,934.19
2018-12-13T04:02:40.316Z,934.15
2018-12-13T04:03:41.564Z,934.13
2018-12-13T04:04:41.978Z,934.07
2018-12-13T04:05:43.110Z,934.1
2018-12-13T04:06:43.617Z,934.08
2018-12-13T04:07:44.618Z,934.09
2018-12-13T04:08:45.307Z,934.05
2018-12-13T04:09:45.826Z,934.11
2018-12-13T04:10:46.058Z,934.03
2018-12-13T04:11:47.293Z,934.08
2018-12-13T04:12:47.809Z,934.09
2018-12-13T04:13:48.777Z,934.1
2018-12-13T04:14:49.875Z,934.03
2018-12-13T04:15:51.279Z,934.06
2018-12-13T04:16:51.518Z,934.06
2018-12-13T04:17:52.216Z,934.08
2018-12-13T04:18:53.175Z,933.99
2018-12-13T04:19:54.434Z,933.98
2018-12-13T04:20:55.110Z,933.97
2018-12-13T04:21:55.633Z,933.95
2018-12-13T04:22:56.872Z,933.95
2018-12-13T04:23:57.420Z,933.96
2018-12-13T04:24:58.142Z,933.94
2018-12-13T04:25:58.954Z,933.95
2018-12-13T04:26:59.364Z,933.98
2018-12-13T04:28:00.328Z,933.91
2018-12-13T04:29:01.566Z,933.94
2018-12-13T04:30:01.811Z,933.95
2018-12-13T04:31:02.895Z,933.95
2018-12-13T04:32:03.298Z,933.92
2018-12-13T04:33:03.833Z,933.92
2018-12-13T04:34:04.086Z,933.92
2018-12-13T04:35:04.779Z,933.88
2018-12-13T04:36:05.294Z,933.87
2018-12-13T04:37:05.983Z,933.84
2018-12-13T04:38:06.965Z,933.85
2018-12-13T04:39:07.674Z,933.81
2018-12-13T04:40:08.639Z,933.81
2018-12-13T04:41:09.590Z,933.8
2018-12-13T04:42:10.300Z,933.81
2018-12-13T04:43:11.426Z,933.83
2018-12-13T04:44:12.550Z,933.82
2018-12-13T04:45:12.955Z,933.77
2018-12-13T04:46:13.637Z,933.76
2018-12-13T04:47:14.154Z,933.7
2018-12-13T04:48:14.835Z,933.76
2018-12-13T04:49:15.557Z,933.74
2018-12-13T04:50:15.961Z,933.72
2018-12-13T04:51:16.508Z,933.73
2018-12-13T04:52:17.466Z,933.72
2018-12-13T04:53:18.153Z,933.7
2018-12-13T04:54:18.840Z,933.7
2018-12-13T04:55:19.971Z,933.74
2018-12-13T04:56:20.372Z,933.7
2018-12-13T04:57:21.500Z,933.68
2018-12-13T04:58:22.463Z,933.68
2018-12-13T04:59:23.195Z,933.68
2018-12-13T05:00:24.321Z,933.7
2018-12-13T05:01:25.128Z,933.67
2018-12-13T05:02:26.253Z,933.69
2018-12-13T05:03:26.655Z,933.71
2018-12-13T05:04:27.339Z,933.66
2018-12-13T05:05:28.024Z,933.64
2018-12-13T05:06:28.767Z,933.66
2018-12-13T05:07:29.729Z,933.58
2018-12-13T05:08:30.135Z,933.68
2018-12-13T05:09:30.540Z,933.65
2018-12-13T05:10:31.219Z,933.6
2018-12-13T05:11:31.639Z,933.6
2018-12-13T05:12:32.340Z,933.58
2018-12-13T05:13:32.743Z,933.6
2018-12-13T05:14:33.704Z,933.57
2018-12-13T05:15:34.112Z,933.6
2018-12-13T05:16:34.513Z,933.53
2018-12-13T05:17:34.926Z,933.54
2018-12-13T05:18:35.614Z,933.52
2018-12-13T05:19:36.294Z,933.52
2018-12-13T05:20:37.697Z,933.53
2018-12-13T05:21:38.226Z,933.53
2018-12-13T05:22:38.631Z,933.53
2018-12-13T05:23:39.758Z,933.53
2018-12-13T05:24:40.889Z,933.52
2018-12-13T05:25:41.065Z,933.5
2018-12-13T05:26:41.467Z,933.51
2018-12-13T05:27:41.873Z,933.46
2018-12-13T05:28:42.556Z,933.46
2018-12-13T05:29:43.681Z,933.44
2018-12-13T05:30:44.363Z,933.42
2018-12-13T05:31:44.767Z,933.4
2018-12-13T05:32:45.173Z,933.45
2018-12-13T05:33:45.575Z,933.42
2018-12-13T05:34:46.260Z,933.48
2018-12-13T05:35:47.217Z,933.42
2018-12-13T05:36:47.901Z,933.45
2018-12-13T05:37:49.142Z,933.43
2018-12-13T05:38:50.268Z,933.4
2018-12-13T05:39:50.737Z,933.39
2018-12-13T05:40:52.140Z,933.39
2018-12-13T05:41:53.503Z,933.37
2018-12-13T05:42:54.463Z,933.32
2018-12-13T05:43:54.869Z,933.37
2018-12-13T05:44:55.276Z,933.35
2018-12-13T05:45:56.246Z,933.33
2018-12-13T05:46:56.652Z,933.36
2018-12-13T05:47:57.610Z,933.29
2018-12-13T05:48:58.571Z,933.32
2018-12-13T05:49:59.250Z,933.29
2018-12-13T05:51:00.215Z,933.3
2018-12-13T05:52:01.370Z,933.26
2018-12-13T05:53:01.778Z,933.27
2018-12-13T05:54:02.458Z,933.27
2018-12-13T05:55:02.859Z,933.31
2018-12-13T05:56:03.263Z,933.26
2018-12-13T05:57:03.949Z,933.25
2018-12-13T05:58:04.359Z,933.26
2018-12-13T05:59:04.764Z,933.21
2018-12-13T06:00:05.443Z,933.22
2018-12-13T06:01:06.127Z,933.23
2018-12-13T06:02:06.664Z,933.19
2018-12-13T06:03:07.364Z,933.2
2018-12-13T06:04:08.769Z,933.18
2018-12-13T06:05:09.451Z,933.18
2018-12-13T06:06:10.411Z,933.18
2018-12-13T06:07:11.093Z,933.12
2018-12-13T06:08:12.051Z,933.13
2018-12-13T06:09:12.781Z,933.1
2018-12-13T06:10:13.907Z,933.11
2018-12-13T06:11:15.059Z,933.1
2018-12-13T06:12:15.868Z,933.05
2018-12-13T06:13:16.547Z,933.08
2018-12-13T06:14:17.227Z,933.08
2018-12-13T06:15:18.355Z,933.11
2018-12-13T06:16:19.039Z,933.04
2018-12-13T06:17:19.722Z,933.06
2018-12-13T06:18:20.403Z,933.17
2018-12-13T06:19:27.070Z,933.17
2018-12-13T06:19:34.145Z,933.17
2018-12-13T06:20:34.509Z,933.18
2018-12-13T06:21:37.350Z,933.16
2018-12-13T06:22:38.476Z,933.16
2018-12-13T06:23:39.490Z,933.16
2018-12-13T06:24:40.177Z,933.17
2018-12-13T06:25:41.135Z,933.2
2018-12-13T06:26:41.597Z,933.18
2018-12-13T06:27:42.554Z,933.21
2018-12-13T06:28:43.514Z,933.22
2018-12-13T06:29:49.510Z,933.26
2018-12-13T06:29:58.757Z,933.25
2018-12-13T06:30:08.292Z,933.23
2018-12-13T06:31:09.493Z,933.29
2018-12-13T06:32:10.026Z,933.25
2018-12-13T06:33:10.990Z,933.22
2018-12-13T06:34:11.672Z,933.23
2018-12-13T06:35:12.083Z,933.21
2018-12-13T06:36:12.762Z,933.27
2018-12-13T06:37:13.921Z,933.2
2018-12-13T06:38:15.089Z,933.25
2018-12-13T06:39:16.319Z,933.33
2018-12-13T06:40:16.786Z,933.32
2018-12-13T06:41:17.506Z,933.32
2018-12-13T06:42:18.096Z,933.32
2018-12-13T06:43:18.663Z,933.32
2018-12-13T06:44:19.684Z,933.28
2018-12-13T06:45:20.667Z,933.3
2018-12-13T06:46:21.869Z,933.27
2018-12-13T06:47:22.643Z,933.3
2018-12-13T06:48:23.771Z,933.29
2018-12-13T06:49:24.456Z,933.26
2018-12-13T06:50:25.150Z,933.27
2018-12-13T06:51:25.823Z,933.27
2018-12-13T06:52:26.779Z,933.27
2018-12-13T06:53:27.462Z,933.24
2018-12-13T06:54:27.993Z,933.28
2018-12-13T06:55:29.170Z,933.29
2018-12-13T06:56:29.609Z,933.3
2018-12-13T06:57:30.019Z,933.35
2018-12-13T06:58:30.422Z,933.29
2018-12-13T06:59:31.108Z,933.3
2018-12-13T07:00:31.799Z,933.33
2018-12-13T07:01:32.345Z,933.35
2018-12-13T07:02:32.751Z,933.33
2018-12-13T07:03:33.713Z,933.36
2018-12-13T07:04:34.436Z,933.32
2018-12-13T07:05:34.874Z,933.34
2018-12-13T07:06:35.281Z,933.37
2018-12-13T07:07:35.700Z,933.32
2018-12-13T07:08:36.385Z,933.32
2018-12-13T07:09:37.513Z,933.3
2018-12-13T07:10:38.774Z,933.29
2018-12-13T07:11:39.751Z,933.31
2018-12-13T07:12:40.444Z,933.29
2018-12-13T07:13:41.145Z,933.36
2018-12-13T07:14:41.547Z,933.36
2018-12-13T07:15:42.738Z,933.36
2018-12-13T07:16:43.084Z,933.32
2018-12-13T07:17:43.779Z,933.36
2018-12-13T07:18:44.250Z,933.37
2018-12-13T07:19:44.659Z,933.36
2018-12-13T07:20:45.066Z,933.31
2018-12-13T07:21:45.737Z,933.36
2018-12-13T07:22:46.867Z,933.39
2018-12-13T07:23:47.828Z,933.4
2018-12-13T07:24:48.513Z,933.35
2018-12-13T07:25:48.926Z,933.39
2018-12-13T07:26:49.606Z,933.36
2018-12-13T07:27:50.742Z,933.32
2018-12-13T07:28:51.704Z,933.33
2018-12-13T07:29:52.835Z,933.34
2018-12-13T07:30:53.526Z,933.33
2018-12-13T07:31:54.068Z,933.33
2018-12-13T07:32:54.823Z,933.29
2018-12-13T07:33:55.527Z,933.26
2018-12-13T07:35:01.690Z,933.24
2018-12-13T07:35:07.843Z,933.24
2018-12-13T07:36:08.948Z,933.22
2018-12-13T07:37:09.641Z,933.2
2018-12-13T07:38:15.028Z,933.27
2018-12-13T07:39:15.920Z,933.27
2018-12-13T07:40:16.668Z,933.27
2018-12-13T07:41:17.076Z,933.22
2018-12-13T07:42:18.042Z,933.25
2018-12-13T07:43:19.360Z,933.3
2018-12-13T07:44:20.377Z,933.36
2018-12-13T07:45:21.064Z,933.32
2018-12-13T07:46:21.922Z,933.36
2018-12-13T07:47:22.917Z,933.41
2018-12-13T07:48:23.328Z,933.39
2018-12-13T07:49:24.458Z,933.42
2018-12-13T07:50:25.192Z,933.4
2018-12-13T07:51:26.214Z,933.44
2018-12-13T07:52:27.349Z,933.45
2018-12-13T07:53:28.481Z,933.5
2018-12-13T07:54:28.895Z,933.47
2018-12-13T07:55:30.028Z,933.49
2018-12-13T07:56:30.338Z,933.46
2018-12-13T07:57:31.243Z,933.43
2018-12-13T07:58:32.236Z,933.4
2018-12-13T07:59:33.196Z,933.41
2018-12-13T08:00:34.183Z,933.45
2018-12-13T08:01:34.981Z,933.47
2018-12-13T08:02:36.119Z,933.5
2018-12-13T08:03:36.813Z,933.47
2018-12-13T08:04:37.845Z,933.48
2018-12-13T08:05:38.503Z,933.49
2018-12-13T08:06:39.535Z,933.46
2018-12-13T08:07:40.230Z,933.4
2018-12-13T08:08:40.975Z,933.41
2018-12-13T08:09:41.652Z,933.4
2018-12-13T08:10:42.067Z,933.37
2018-12-13T08:11:42.478Z,933.37
2018-12-13T08:12:43.612Z,933.38
2018-12-13T08:13:44.021Z,933.42
2018-12-13T08:14:45.154Z,933.4
2018-12-13T08:15:45.399Z,933.43
2018-12-13T08:16:45.599Z,933.46
2018-12-13T08:17:47.244Z,933.44
2018-12-13T08:18:47.924Z,933.49
2018-12-13T08:19:49.171Z,933.43
2018-12-13T08:20:49.581Z,933.38
2018-12-13T08:21:50.274Z,933.44
2018-12-13T08:22:51.238Z,933.4
2018-12-13T08:23:52.247Z,933.43
2018-12-13T08:24:52.941Z,933.39
2018-12-13T08:25:54.075Z,933.35
2018-12-13T08:26:54.620Z,933.3
2018-12-13T08:27:55.756Z,933.37
2018-12-13T08:28:56.726Z,933.32
2018-12-13T08:29:57.137Z,933.33
2018-12-13T08:30:57.826Z,933.28
2018-12-13T08:31:58.963Z,933.27
2018-12-13T08:32:59.374Z,933.27
2018-12-13T08:34:00.066Z,933.31
2018-12-13T08:35:00.756Z,933.29
2018-12-13T08:36:01.723Z,933.29
2018-12-13T08:37:02.546Z,933.32
2018-12-13T08:38:03.566Z,933.39
2018-12-13T08:39:03.813Z,933.31
2018-12-13T08:40:04.617Z,933.35
2018-12-13T08:41:05.751Z,933.33
2018-12-13T08:42:06.087Z,933.32
2018-12-13T08:43:06.786Z,933.31
2018-12-13T08:44:07.791Z,933.32
2018-12-13T08:45:08.088Z,933.3
2018-12-13T08:46:09.250Z,933.31
2018-12-13T08:47:10.485Z,933.34
2018-12-13T08:48:11.259Z,933.29
2018-12-13T08:49:11.673Z,933.31
2018-12-13T08:50:12.389Z,933.23
2018-12-13T08:51:12.896Z,933.22
2018-12-13T08:52:13.310Z,933.22
2018-12-13T08:53:14.279Z,933.22
2018-12-13T08:54:15.429Z,933.26
2018-12-13T08:55:16.181Z,933.26
2018-12-13T08:56:16.867Z,933.25
2018-12-13T08:57:17.408Z,933.2
2018-12-13T08:58:17.958Z,933.23
2018-12-13T08:59:19.222Z,933.15
2018-12-13T09:00:19.631Z,933.17
2018-12-13T09:01:20.089Z,933.15
2018-12-13T09:02:20.774Z,933.17
2018-12-13T09:03:21.741Z,933.16
2018-12-13T09:04:22.433Z,933.16
2018-12-13T09:05:22.915Z,933.18
2018-12-13T09:06:23.490Z,933.16
2018-12-13T09:07:23.748Z,933.18
2018-12-13T09:08:24.456Z,933.16
2018-12-13T09:09:25.090Z,933.18
2018-12-13T09:10:26.028Z,933.16
2018-12-13T09:11:27.052Z,933.13
2018-12-13T09:12:28.035Z,933.21
2018-12-13T09:13:28.227Z,933.16
2018-12-13T09:14:28.951Z,933.18
2018-12-13T09:15:29.361Z,933.16
2018-12-13T09:16:32.234Z,933.16
2018-12-13T09:17:32.788Z,933.11
2018-12-13T09:18:33.921Z,933.14
2018-12-13T09:19:34.348Z,933.17
2018-12-13T09:20:35.425Z,933.2
2018-12-13T09:21:36.148Z,933.23
2018-12-13T09:22:36.891Z,933.2
2018-12-13T09:23:38.030Z,933.19
2018-12-13T09:24:38.811Z,933.17
2018-12-13T09:25:39.428Z,933.17
2018-12-13T09:26:40.566Z,933.19
2018-12-13T09:27:41.216Z,933.18
2018-12-13T09:28:42.109Z,933.19
2018-12-13T09:29:42.839Z,933.2
2018-12-13T09:30:43.452Z,933.25
2018-12-13T09:31:44.588Z,933.26
2018-12-13T09:32:44.930Z,933.31
2018-12-13T09:33:45.341Z,933.29
2018-12-13T09:34:45.755Z,933.33
2018-12-13T09:35:46.448Z,933.34
2018-12-13T09:36:46.871Z,933.34
2018-12-13T09:37:48.176Z,933.31
2018-12-13T09:38:49.347Z,933.29
2018-12-13T09:39:50.450Z,933.32
2018-12-13T09:40:50.703Z,933.31
2018-12-13T09:41:51.766Z,933.29
2018-12-13T09:42:52.734Z,933.29
2018-12-13T09:43:53.228Z,933.26
2018-12-13T09:44:53.887Z,933.2
2018-12-13T09:45:54.578Z,933.2
2018-12-13T09:46:55.267Z,933.17
2018-12-13T09:47:55.713Z,933.16
2018-12-13T09:48:55.959Z,933.1
2018-12-13T09:49:56.650Z,933.12
2018-12-13T09:50:57.794Z,933.09
2018-12-13T09:51:58.207Z,933.11
2018-12-13T09:52:59.448Z,933.07
2018-12-13T09:53:59.628Z,933.07
2018-12-13T09:55:06.113Z,933.05
2018-12-13T09:55:12.409Z,933.06
2018-12-13T09:56:13.041Z,933.05
2018-12-13T09:57:14.183Z,932.98
2018-12-13T09:58:15.429Z,933.02
2018-12-13T09:59:15.843Z,933.02
2018-12-13T10:00:16.819Z,933.05
2018-12-13T10:01:17.957Z,932.99
2018-12-13T10:02:18.376Z,932.95
2018-12-13T10:03:19.141Z,932.97
2018-12-13T10:04:19.896Z,932.97
2018-12-13T10:05:20.615Z,932.97
2018-12-13T10:06:21.743Z,933.03
2018-12-13T10:07:22.095Z,933.05
2018-12-13T10:08:23.275Z,932.98
2018-12-13T10:09:24.420Z,933.03
2018-12-13T10:10:25.107Z,933.02
2018-12-13T10:11:25.863Z,933.06
2018-12-13T10:12:26.279Z,933.09
2018-12-13T10:13:26.696Z,933.07
2018-12-13T10:14:27.474Z,933.1
2018-12-13T10:15:32.469Z,933.06
2018-12-13T10:16:33.651Z,933.06
2018-12-13T10:17:34.624Z,933.04
2018-12-13T10:18:35.050Z,933.05
2018-12-13T10:19:35.920Z,933.02
2018-12-13T10:20:36.615Z,933.01
2018-12-13T10:21:37.050Z,933.01
2018-12-13T10:22:37.629Z,933.01
2018-12-13T10:23:37.954Z,932.95
2018-12-13T10:24:38.657Z,932.95
2018-12-13T10:25:38.983Z,932.93
2018-12-13T10:26:39.802Z,932.92
2018-12-13T10:27:40.944Z,932.85
2018-12-13T10:28:41.365Z,932.85
2018-12-13T10:29:41.781Z,932.83
2018-12-13T10:30:42.480Z,932.82
2018-12-13T10:31:43.176Z,932.79
2018-12-13T10:32:44.151Z,932.79
2018-12-13T10:33:44.849Z,932.76
2018-12-13T10:34:47.038Z,932.77
2018-12-13T10:35:46.722Z,932.75
2018-12-13T10:36:47.567Z,932.74
2018-12-13T10:37:50.215Z,932.74
2018-12-13T10:38:53.931Z,932.72
2018-12-13T10:39:54.431Z,932.68
2018-12-13T10:40:55.406Z,932.69
2018-12-13T10:41:58.031Z,932.74
2018-12-13T10:42:09.194Z,932.73
2018-12-13T10:42:21.048Z,932.74
2018-12-13T10:43:21.603Z,932.77
2018-12-13T10:44:22.301Z,932.79
2018-12-13T10:45:23.278Z,932.83
2018-12-13T10:46:23.981Z,932.82
2018-12-13T10:47:24.680Z,932.83
2018-12-13T10:48:25.098Z,932.81
2018-12-13T10:49:25.804Z,932.76
2018-12-13T10:50:26.951Z,932.74
2018-12-13T10:51:27.658Z,932.73
2018-12-13T10:52:28.736Z,932.75
2018-12-13T10:53:29.134Z,932.76
2018-12-13T10:54:29.872Z,932.69
2018-12-13T10:55:30.288Z,932.67
2018-12-13T10:56:30.752Z,932.65
2018-12-13T10:57:30.988Z,932.61
2018-12-13T10:58:31.735Z,932.63
2018-12-13T10:59:32.886Z,932.58
2018-12-13T11:00:33.145Z,932.57
2018-12-13T11:01:34.122Z,932.57
2018-12-13T11:02:34.572Z,932.53
2018-12-13T11:03:35.958Z,932.53
2018-12-13T11:04:36.938Z,932.51
2018-12-13T11:05:37.311Z,932.49
2018-12-13T11:06:38.689Z,932.45
2018-12-13T11:07:39.808Z,932.5
2018-12-13T11:08:40.102Z,932.49
2018-12-13T11:09:41.420Z,932.51
2018-12-13T11:10:41.969Z,932.5
2018-12-13T11:11:43.188Z,932.45
2018-12-13T11:12:43.947Z,932.5
2018-12-13T11:13:44.872Z,932.45
2018-12-13T11:14:45.682Z,932.42
2018-12-13T11:15:46.309Z,932.46
2018-12-13T11:16:47.309Z,932.44
2018-12-13T11:17:48.425Z,932.46
2018-12-13T11:18:49.447Z,932.4
2018-12-13T11:19:50.539Z,932.39
2018-12-13T11:20:50.875Z,932.36
2018-12-13T11:21:51.420Z,932.35
2018-12-13T11:22:52.182Z,932.34
2018-12-13T11:23:52.898Z,932.32
2018-12-13T11:24:53.663Z,932.27
2018-12-13T11:25:54.227Z,932.26
2018-12-13T11:26:55.209Z,932.22
2018-12-13T11:27:55.911Z,932.22
2018-12-13T11:28:56.575Z,932.22
2018-12-13T11:29:57.000Z,932.24
2018-12-13T11:30:57.704Z,932.15
2018-12-13T11:31:58.842Z,932.12
2018-12-13T11:32:59.537Z,932.17
2018-12-13T11:34:00.364Z,932.2
2018-12-13T11:35:01.043Z,932.17
2018-12-13T11:36:01.488Z,932.17
2018-12-13T11:37:01.978Z,932.17
2018-12-13T11:38:03.160Z,932.15
2018-12-13T11:39:07.324Z,932.14
2018-12-13T11:39:16.785Z,932.19
2018-12-13T11:40:16.934Z,932.17
2018-12-13T11:41:18.188Z,932.13
2018-12-13T11:42:18.605Z,932.15
2018-12-13T11:43:19.033Z,932.18
2018-12-13T11:44:20.176Z,932.13
2018-12-13T11:45:20.429Z,932.12
2018-12-13T11:46:21.881Z,932.1
2018-12-13T11:47:23.045Z,932.12
2018-12-13T11:48:25.959Z,932.11
2018-12-13T11:49:25.125Z,932.07
2018-12-13T11:50:26.138Z,932.02
2018-12-13T11:51:27.442Z,932.04
2018-12-13T11:52:27.909Z,932.05
2018-12-13T11:53:29.053Z,932.1
2018-12-13T11:54:30.339Z,932.1
2018-12-13T11:55:31.110Z,931.98
2018-12-13T11:56:31.806Z,932.01
2018-12-13T11:57:33.791Z,931.97
2018-12-13T11:57:44.797Z,932.01
2018-12-13T11:58:44.665Z,931.99
2018-12-13T11:59:45.234Z,931.98
2018-12-13T12:00:46.203Z,931.98
2018-12-13T12:01:47.115Z,931.96
2018-12-13T12:02:47.257Z,931.98
2018-12-13T12:03:47.798Z,931.98
2018-12-13T12:04:48.536Z,931.97
2018-12-13T12:05:49.788Z,931.98
2018-12-13T12:06:50.174Z,932.01
2018-12-13T12:07:50.773Z,931.96
2018-12-13T12:08:51.374Z,931.93
2018-12-13T12:09:53.900Z,931.96
2018-12-13T12:10:54.104Z,931.93
2018-12-13T12:11:54.805Z,931.96
2018-12-13T12:12:55.503Z,931.96
2018-12-13T12:13:56.639Z,931.98
2018-12-13T12:14:57.135Z,932
2018-12-13T12:15:58.281Z,932.02
2018-12-13T12:16:59.257Z,932.02
2018-12-13T12:18:00.400Z,932.04
2018-12-13T12:19:00.801Z,931.99
2018-12-13T12:20:01.148Z,931.95
2018-12-13T12:21:02.313Z,931.97
2018-12-13T12:22:03.763Z,931.99
2018-12-13T12:23:04.851Z,931.97
2018-12-13T12:24:05.589Z,931.99
2018-12-13T12:25:06.012Z,931.99
2018-12-13T12:26:08.929Z,932.02
2018-12-13T12:26:18.593Z,932.03
2018-12-13T12:27:19.531Z,932.07
2018-12-13T12:28:20.510Z,932.01
2018-12-13T12:29:20.950Z,932.06
2018-12-13T12:30:22.048Z,931.98
2018-12-13T12:31:22.688Z,932.04
2018-12-13T12:32:23.237Z,932.06